Mr Jessie — WCX6476 — position and weather

sailwx.info

Track history (hours):
 
Tides and Currents Weather Stations Pressure Air Temp Water Temp Dewpoint Dewpoint Depression Visibility Wind Speed Wind Dir Waves Ship Positions

Mr Jessie

Owner: ALPHA MARINE SERVICES LLC, GALLIANO, LA. More information available from US FCC via Universal Licensing System and Coast Guard Vessel Documentation Center.

Last reported at 2016-Jun-23 22:24 UTC. Time now 2016-Jun-24 22:14 UTC.
Position N 29°34' W 090°32'.

Length 93 m; draft 4 m.

Type: Ship. MMSI: 366282000.

Date/timePositionNaut miles runAvg speedWind from/ knotsBaromVisibWave heightAir tempDewpointWater temp
2016-Jun-23 22:24N 29°34' W 090°32'6 6.9
2016-Jun-23 21:34N 29°35' W 090°38'4 4.0
2016-Jun-23 20:34N 29°35' W 090°43'3 2.5
2016-Jun-23 19:31N 29°33' W 090°42'0 0.0
2016-Jun-23 18:31N 29°33' W 090°42'1 1.1
2016-Jun-23 17:33N 29°34' W 090°42'0 0.2
2016-Jun-23 16:32N 29°34' W 090°42'0 0.0
2016-Jun-23 15:31N 29°34' W 090°42'0 0.0
2016-Jun-23 14:31N 29°34' W 090°42'0 0.0
2016-Jun-23 13:31N 29°34' W 090°42'0 0.0
2016-Jun-23 12:31N 29°34' W 090°42'0 0.0
2016-Jun-23 11:31N 29°34' W 090°42'0 0.0
2016-Jun-23 10:31N 29°34' W 090°42'0 0.0
2016-Jun-23 09:31N 29°34' W 090°42'0 0.0
2016-Jun-23 08:31N 29°34' W 090°42'0 0.0
2016-Jun-23 07:31N 29°34' W 090°42'0 0.0
2016-Jun-23 05:31N 29°34' W 090°42'0 0.0
2016-Jun-23 04:25N 29°34' W 090°42'0 0.0
2016-Jun-23 03:31N 29°34' W 090°42'0 0.0
2016-Jun-23 02:28N 29°34' W 090°42'0 0.0
2016-Jun-23 01:31N 29°34' W 090°42'0 0.0
2016-Jun-23 00:28N 29°34' W 090°42'0 0.0
2016-Jun-22 23:31N 29°34' W 090°42'0 0.0
2016-Jun-22 22:31N 29°34' W 090°42'0 0.0
2016-Jun-22 21:31N 29°34' W 090°42'0 0.0
2016-Jun-22 20:31N 29°34' W 090°42'0 0.0
2016-Jun-22 19:31N 29°34' W 090°42'0 0.0
2016-Jun-22 18:31N 29°34' W 090°42'0 0.0
2016-Jun-22 17:31N 29°34' W 090°42'0 0.0
2016-Jun-22 16:31N 29°34' W 090°42'0 0.0
2016-Jun-22 15:31N 29°34' W 090°42'0 0.0
2016-Jun-22 14:31N 29°34' W 090°42'0 0.0
2016-Jun-21 15:29N 29°34' W 090°42'0 0.0
2016-Jun-20 22:31N 29°34' W 090°42'0 0.0
2016-Jun-20 21:31N 29°34' W 090°42'0 0.0
2016-Jun-20 20:31N 29°34' W 090°42'  
Track history (hours):
 
Tides and Currents Weather Stations Pressure Air Temp Water Temp Dewpoint Dewpoint Depression Visibility Wind Speed Wind Dir Waves Ship Positions

Mr Jessie

Owner: ALPHA MARINE SERVICES LLC, GALLIANO, LA. More information available from US FCC via Universal Licensing System and Coast Guard Vessel Documentation Center.

Last reported at 2016-Jun-23 22:24 UTC. Time now 2016-Jun-24 22:14 UTC.
Position N 29°34' W 090°32'.

Length 93 m; draft 4 m.

Type: Ship. MMSI: 366282000.

Date/timePositionNaut miles runAvg speedWind from/ knotsBaromVisibWave heightAir tempDewpointWater temp
2016-Jun-23 22:24N 29°34' W 090°32'6 6.9
2016-Jun-23 21:34N 29°35' W 090°38'4 4.0
2016-Jun-23 20:34N 29°35' W 090°43'3 2.5
2016-Jun-23 19:31N 29°33' W 090°42'0 0.0
2016-Jun-23 18:31N 29°33' W 090°42'1 1.1
2016-Jun-23 17:33N 29°34' W 090°42'0 0.2
2016-Jun-23 16:32N 29°34' W 090°42'0 0.0
2016-Jun-23 15:31N 29°34' W 090°42'0 0.0
2016-Jun-23 14:31N 29°34' W 090°42'0 0.0
2016-Jun-23 13:31N 29°34' W 090°42'0 0.0
2016-Jun-23 12:31N 29°34' W 090°42'0 0.0
2016-Jun-23 11:31N 29°34' W 090°42'0 0.0
2016-Jun-23 10:31N 29°34' W 090°42'0 0.0
2016-Jun-23 09:31N 29°34' W 090°42'0 0.0
2016-Jun-23 08:31N 29°34' W 090°42'0 0.0
2016-Jun-23 07:31N 29°34' W 090°42'0 0.0
2016-Jun-23 05:31N 29°34' W 090°42'0 0.0
2016-Jun-23 04:25N 29°34' W 090°42'0 0.0
2016-Jun-23 03:31N 29°34' W 090°42'0 0.0
2016-Jun-23 02:28N 29°34' W 090°42'0 0.0
2016-Jun-23 01:31N 29°34' W 090°42'0 0.0
2016-Jun-23 00:28N 29°34' W 090°42'0 0.0
2016-Jun-22 23:31N 29°34' W 090°42'0 0.0
2016-Jun-22 22:31N 29°34' W 090°42'0 0.0
2016-Jun-22 21:31N 29°34' W 090°42'0 0.0
2016-Jun-22 20:31N 29°34' W 090°42'0 0.0
2016-Jun-22 19:31N 29°34' W 090°42'0 0.0
2016-Jun-22 18:31N 29°34' W 090°42'0 0.0
2016-Jun-22 17:31N 29°34' W 090°42'0 0.0
2016-Jun-22 16:31N 29°34' W 090°42'0 0.0
2016-Jun-22 15:31N 29°34' W 090°42'0 0.0
2016-Jun-22 14:31N 29°34' W 090°42'0 0.0
2016-Jun-21 15:29N 29°34' W 090°42'0 0.0
2016-Jun-20 22:31N 29°34' W 090°42'0 0.0
2016-Jun-20 21:31N 29°34' W 090°42'0 0.0
2016-Jun-20 20:31N 29°34' W 090°42'  

Dump ship's entire track history